sensor_id;sensor_type;location;lat;lon;timestamp;pressure;altitude;pressure_sealevel;temperature;humidity
47985;BME280;33753;52.912;-7.342;2022-12-07T00:01:21;101568.63;;;-1.53;100.00
47985;BME280;33753;52.912;-7.342;2022-12-07T00:03:52;101560.03;;;-1.58;100.00
47985;BME280;33753;52.912;-7.342;2022-12-07T00:06:21;101557.38;;;-1.58;100.00
47985;BME280;33753;52.912;-7.342;2022-12-07T00:08:49;101560.09;;;-1.60;100.00
47985;BME280;33753;52.912;-7.342;2022-12-07T00:11:19;101555.78;;;-1.62;100.00
47985;BME280;33753;52.912;-7.342;2022-12-07T00:13:50;101560.09;;;-1.60;100.00
47985;BME280;33753;52.912;-7.342;2022-12-07T00:16:19;101561.75;;;-1.57;100.00
47985;BME280;33753;52.912;-7.342;2022-12-07T00:18:48;101556.25;;;-1.52;100.00
47985;BME280;33753;52.912;-7.342;2022-12-07T00:21:19;101563.16;;;-1.48;100.00
47985;BME280;33753;52.912;-7.342;2022-12-07T00:23:49;101564.84;;;-1.47;100.00
47985;BME280;33753;52.912;-7.342;2022-12-07T00:26:19;101561.13;;;-1.43;100.00
47985;BME280;33753;52.912;-7.342;2022-12-07T00:28:48;101573.34;;;-1.39;100.00
47985;BME280;33753;52.912;-7.342;2022-12-07T00:31:17;101569.63;;;-1.35;100.00
47985;BME280;33753;52.912;-7.342;2022-12-07T00:33:45;101568.63;;;-1.32;100.00
47985;BME280;33753;52.912;-7.342;2022-12-07T00:36:14;101570.38;;;-1.31;100.00
47985;BME280;33753;52.912;-7.342;2022-12-07T00:38:49;101560.59;;;-1.31;100.00
47985;BME280;33753;52.912;-7.342;2022-12-07T00:41:18;101562.34;;;-1.30;100.00
47985;BME280;33753;52.912;-7.342;2022-12-07T00:43:47;101558.72;;;-1.29;100.00
47985;BME280;33753;52.912;-7.342;2022-12-07T00:46:16;101566.59;;;-1.26;100.00
47985;BME280;33753;52.912;-7.342;2022-12-07T00:48:44;101567.38;;;-1.24;100.00
47985;BME280;33753;52.912;-7.342;2022-12-07T00:51:14;101565.38;;;-1.18;100.00
47985;BME280;33753;52.912;-7.342;2022-12-07T00:53:42;101568.75;;;-1.15;100.00
47985;BME280;33753;52.912;-7.342;2022-12-07T00:56:12;101564.94;;;-1.09;100.00
47985;BME280;33753;52.912;-7.342;2022-12-07T00:58:41;101569.97;;;-1.03;100.00
47985;BME280;33753;52.912;-7.342;2022-12-07T01:01:09;101560.75;;;-0.94;100.00
47985;BME280;33753;52.912;-7.342;2022-12-07T01:03:38;101561.25;;;-0.86;100.00
47985;BME280;33753;52.912;-7.342;2022-12-07T01:06:06;101570.56;;;-0.77;100.00
47985;BME280;33753;52.912;-7.342;2022-12-07T01:08:35;101570.16;;;-0.68;100.00
47985;BME280;33753;52.912;-7.342;2022-12-07T01:11:04;101573.34;;;-0.60;100.00
47985;BME280;33753;52.912;-7.342;2022-12-07T01:13:34;101566.78;;;-0.53;100.00
47985;BME280;33753;52.912;-7.342;2022-12-07T01:16:03;101570.88;;;-0.45;100.00
47985;BME280;33753;52.912;-7.342;2022-12-07T01:18:32;101574.09;;;-0.39;100.00
47985;BME280;33753;52.912;-7.342;2022-12-07T01:21:02;101578.25;;;-0.33;100.00
47985;BME280;33753;52.912;-7.342;2022-12-07T01:23:31;101572.75;;;-0.28;100.00
47985;BME280;33753;52.912;-7.342;2022-12-07T01:26:00;101568.13;;;-0.25;100.00
47985;BME280;33753;52.912;-7.342;2022-12-07T01:28:28;101566.09;;;-0.20;100.00
47985;BME280;33753;52.912;-7.342;2022-12-07T01:30:59;101565.97;;;-0.16;100.00
47985;BME280;33753;52.912;-7.342;2022-12-07T01:33:28;101557.75;;;-0.12;100.00
47985;BME280;33753;52.912;-7.342;2022-12-07T01:36:00;101555.00;;;-0.10;100.00
47985;BME280;33753;52.912;-7.342;2022-12-07T01:38:29;101554.84;;;-0.07;100.00
47985;BME280;33753;52.912;-7.342;2022-12-07T01:40:57;101559.09;;;-0.03;100.00
47985;BME280;33753;52.912;-7.342;2022-12-07T01:43:26;101559.97;;;-0.03;100.00
47985;BME280;33753;52.912;-7.342;2022-12-07T01:45:56;101551.19;;;-0.05;100.00
47985;BME280;33753;52.912;-7.342;2022-12-07T01:48:27;101551.09;;;-0.03;100.00
47985;BME280;33753;52.912;-7.342;2022-12-07T01:50:56;101545.78;;;-0.03;100.00
47985;BME280;33753;52.912;-7.342;2022-12-07T01:53:28;101540.47;;;-0.03;100.00
47985;BME280;33753;52.912;-7.342;2022-12-07T01:55:57;101532.56;;;-0.05;100.00
47985;BME280;33753;52.912;-7.342;2022-12-07T01:58:26;101540.47;;;-0.03;100.00
47985;BME280;33753;52.912;-7.342;2022-12-07T02:00:54;101535.03;;;0.00;100.00
47985;BME280;33753;52.912;-7.342;2022-12-07T02:03:24;101533.13;;;0.02;100.00
47985;BME280;33753;52.912;-7.342;2022-12-07T02:05:55;101535.78;;;0.02;100.00
47985;BME280;33753;52.912;-7.342;2022-12-07T02:08:23;101527.97;;;-0.01;100.00
47985;BME280;33753;52.912;-7.342;2022-12-07T02:10:52;101526.25;;;-0.02;100.00
47985;BME280;33753;52.912;-7.342;2022-12-07T02:13:25;101536.03;;;-0.03;100.00
47985;BME280;33753;52.912;-7.342;2022-12-07T02:15:59;101528.13;;;-0.04;100.00
47985;BME280;33753;52.912;-7.342;2022-12-07T02:18:31;101530.00;;;-0.06;100.00
47985;BME280;33753;52.912;-7.342;2022-12-07T02:21:05;101529.84;;;-0.03;100.00
47985;BME280;33753;52.912;-7.342;2022-12-07T02:23:39;101526.41;;;-0.05;100.00
47985;BME280;33753;52.912;-7.342;2022-12-07T02:29:05;101524.66;;;-0.06;100.00
47985;BME280;33753;52.912;-7.342;2022-12-07T02:31:38;101525.84;;;-0.12;100.00
47985;BME280;33753;52.912;-7.342;2022-12-07T02:34:11;101522.31;;;-0.12;100.00
47985;BME280;33753;52.912;-7.342;2022-12-07T02:36:43;101519.19;;;-0.21;100.00
47985;BME280;33753;52.912;-7.342;2022-12-07T02:39:15;101523.56;;;-0.20;100.00
47985;BME280;33753;52.912;-7.342;2022-12-07T02:41:46;101518.09;;;-0.16;100.00
47985;BME280;33753;52.912;-7.342;2022-12-07T02:44:18;101516.28;;;-0.16;100.00
47985;BME280;33753;52.912;-7.342;2022-12-07T02:46:49;101507.78;;;-0.23;100.00
47985;BME280;33753;52.912;-7.342;2022-12-07T02:49:18;101514.94;;;-0.25;100.00
47985;BME280;33753;52.912;-7.342;2022-12-07T02:51:49;101506.03;;;-0.24;100.00
47985;BME280;33753;52.912;-7.342;2022-12-07T02:54:18;101511.50;;;-0.27;100.00
47985;BME280;33753;52.912;-7.342;2022-12-07T02:56:48;101507.78;;;-0.23;100.00
47985;BME280;33753;52.912;-7.342;2022-12-07T02:59:20;101502.28;;;-0.20;100.00
47985;BME280;33753;52.912;-7.342;2022-12-07T03:01:55;101500.56;;;-0.21;100.00
47985;BME280;33753;52.912;-7.342;2022-12-07T03:04:33;101498.91;;;-0.23;100.00
47985;BME280;33753;52.912;-7.342;2022-12-07T03:07:05;101496.25;;;-0.23;100.00
47985;BME280;33753;52.912;-7.342;2022-12-07T03:09:37;101488.34;;;-0.25;100.00
47985;BME280;33753;52.912;-7.342;2022-12-07T03:12:12;101490.84;;;-0.22;100.00
47985;BME280;33753;52.912;-7.342;2022-12-07T03:14:45;101493.69;;;-0.25;100.00
47985;BME280;33753;52.912;-7.342;2022-12-07T03:17:16;101497.25;;;-0.26;100.00
47985;BME280;33753;52.912;-7.342;2022-12-07T03:19:45;101491.81;;;-0.23;100.00
47985;BME280;33753;52.912;-7.342;2022-12-07T03:22:15;101490.09;;;-0.24;100.00
47985;BME280;33753;52.912;-7.342;2022-12-07T03:24:45;101487.59;;;-0.27;100.00
47985;BME280;33753;52.912;-7.342;2022-12-07T03:27:16;101474.38;;;-0.28;100.00
47985;BME280;33753;52.912;-7.342;2022-12-07T03:29:49;101479.91;;;-0.33;100.00
47985;BME280;33753;52.912;-7.342;2022-12-07T03:32:19;101481.94;;;-0.38;100.00
47985;BME280;33753;52.912;-7.342;2022-12-07T03:34:51;101479.34;;;-0.40;100.00
47985;BME280;33753;52.912;-7.342;2022-12-07T03:37:22;101484.19;;;-0.30;100.00
47985;BME280;33753;52.912;-7.342;2022-12-07T03:39:54;101483.28;;;-0.29;100.00
47985;BME280;33753;52.912;-7.342;2022-12-07T03:42:26;101490.31;;;-0.28;100.00
47985;BME280;33753;52.912;-7.342;2022-12-07T03:44:56;101487.81;;;-0.31;100.00
47985;BME280;33753;52.912;-7.342;2022-12-07T03:47:26;101484.34;;;-0.33;100.00
47985;BME280;33753;52.912;-7.342;2022-12-07T03:49:58;101480.22;;;-0.39;100.00
47985;BME280;33753;52.912;-7.342;2022-12-07T03:52:28;101478.78;;;-0.46;100.00
47985;BME280;33753;52.912;-7.342;2022-12-07T03:55:02;101476.53;;;-0.54;100.00
47985;BME280;33753;52.912;-7.342;2022-12-07T03:57:33;101482.09;;;-0.60;100.00
47985;BME280;33753;52.912;-7.342;2022-12-07T04:00:05;101478.97;;;-0.68;100.00
47985;BME280;33753;52.912;-7.342;2022-12-07T04:02:39;101467.94;;;-0.78;100.00
47985;BME280;33753;52.912;-7.342;2022-12-07T04:05:08;101465.63;;;-0.86;100.00
47985;BME280;33753;52.912;-7.342;2022-12-07T04:07:37;101469.50;;;-0.93;100.00
47985;BME280;33753;52.912;-7.342;2022-12-07T04:10:06;101461.91;;;-1.01;100.00
47985;BME280;33753;52.912;-7.342;2022-12-07T04:12:34;101456.03;;;-1.08;100.00
47985;BME280;33753;52.912;-7.342;2022-12-07T04:15:04;101458.31;;;-1.19;100.00
47985;BME280;33753;52.912;-7.342;2022-12-07T04:17:32;101451.41;;;-1.23;100.00
47985;BME280;33753;52.912;-7.342;2022-12-07T04:20:01;101441.94;;;-1.29;100.00
47985;BME280;33753;52.912;-7.342;2022-12-07T04:22:30;101456.31;;;-1.33;100.00
47985;BME280;33753;52.912;-7.342;2022-12-07T04:24:59;101444.13;;;-1.37;100.00
47985;BME280;33753;52.912;-7.342;2022-12-07T04:27:27;101449.59;;;-1.42;100.00
47985;BME280;33753;52.912;-7.342;2022-12-07T04:29:55;101452.41;;;-1.45;100.00
47985;BME280;33753;52.912;-7.342;2022-12-07T04:32:26;101449.69;;;-1.43;100.00
47985;BME280;33753;52.912;-7.342;2022-12-07T04:34:54;101447.84;;;-1.41;100.00
47985;BME280;33753;52.912;-7.342;2022-12-07T04:37:22;101445.09;;;-1.40;100.00
47985;BME280;33753;52.912;-7.342;2022-12-07T04:39:50;101440.50;;;-1.36;100.00
47985;BME280;33753;52.912;-7.342;2022-12-07T04:42:19;101441.31;;;-1.34;100.00
47985;BME280;33753;52.912;-7.342;2022-12-07T04:44:47;101440.25;;;-1.30;100.00
47985;BME280;33753;52.912;-7.342;2022-12-07T04:47:15;101433.97;;;-1.29;100.00
47985;BME280;33753;52.912;-7.342;2022-12-07T04:49:45;101440.09;;;-1.27;100.00
47985;BME280;33753;52.912;-7.342;2022-12-07T04:52:13;101434.63;;;-1.24;100.00
47985;BME280;33753;52.912;-7.342;2022-12-07T04:54:41;101438.06;;;-1.22;100.00
47985;BME280;33753;52.912;-7.342;2022-12-07T04:57:10;101436.22;;;-1.19;100.00
47985;BME280;33753;52.912;-7.342;2022-12-07T04:59:38;101436.06;;;-1.16;100.00
47985;BME280;33753;52.912;-7.342;2022-12-07T05:02:11;101444.84;;;-1.14;100.00
47985;BME280;33753;52.912;-7.342;2022-12-07T05:04:39;101444.69;;;-1.11;100.00
47985;BME280;33753;52.912;-7.342;2022-12-07T05:07:09;101442.81;;;-1.09;100.00
47985;BME280;33753;52.912;-7.342;2022-12-07T05:09:37;101436.59;;;-1.08;100.00
47985;BME280;33753;52.912;-7.342;2022-12-07T05:12:06;101440.00;;;-1.06;100.00
47985;BME280;33753;52.912;-7.342;2022-12-07T05:14:34;101435.50;;;-1.04;100.00
47985;BME280;33753;52.912;-7.342;2022-12-07T05:17:02;101430.13;;;-1.02;100.00
47985;BME280;33753;52.912;-7.342;2022-12-07T05:19:30;101431.84;;;-1.01;100.00
47985;BME280;33753;52.912;-7.342;2022-12-07T05:21:59;101432.63;;;-0.99;100.00
47985;BME280;33753;52.912;-7.342;2022-12-07T05:24:28;101431.63;;;-0.97;100.00
47985;BME280;33753;52.912;-7.342;2022-12-07T05:26:56;101431.63;;;-0.97;100.00
47985;BME280;33753;52.912;-7.342;2022-12-07T05:29:25;101429.75;;;-0.95;100.00
47985;BME280;33753;52.912;-7.342;2022-12-07T05:31:53;101430.56;;;-0.93;100.00
47985;BME280;33753;52.912;-7.342;2022-12-07T05:34:21;101427.91;;;-0.93;100.00
47985;BME280;33753;52.912;-7.342;2022-12-07T05:36:49;101426.88;;;-0.90;100.00
47985;BME280;33753;52.912;-7.342;2022-12-07T05:39:18;101433.06;;;-0.90;100.00
47985;BME280;33753;52.912;-7.342;2022-12-07T05:41:47;101433.06;;;-0.90;100.00
47985;BME280;33753;52.912;-7.342;2022-12-07T05:44:33;101429.47;;;-0.89;100.00
47985;BME280;33753;52.912;-7.342;2022-12-07T05:47:01;101428.59;;;-0.89;100.00
47985;BME280;33753;52.912;-7.342;2022-12-07T05:49:29;101429.59;;;-0.92;100.00
47985;BME280;33753;52.912;-7.342;2022-12-07T05:51:58;101425.31;;;-0.94;100.00
47985;BME280;33753;52.912;-7.342;2022-12-07T05:54:26;101417.47;;;-0.97;100.00
47985;BME280;33753;52.912;-7.342;2022-12-07T05:56:56;101424.75;;;-1.01;100.00
47985;BME280;33753;52.912;-7.342;2022-12-07T05:59:25;101417.84;;;-1.05;100.00
47985;BME280;33753;52.912;-7.342;2022-12-07T06:01:54;101412.91;;;-1.13;100.00
47985;BME280;33753;52.912;-7.342;2022-12-07T06:04:24;101422.72;;;-1.15;100.00
47985;BME280;33753;52.912;-7.342;2022-12-07T06:06:52;101420.44;;;-1.23;100.00
47985;BME280;33753;52.912;-7.342;2022-12-07T06:09:21;101420.72;;;-1.29;100.00
47985;BME280;33753;52.912;-7.342;2022-12-07T06:11:49;101414.63;;;-1.31;100.00
47985;BME280;33753;52.912;-7.342;2022-12-07T06:14:37;101412.28;;;-1.37;100.00
47985;BME280;33753;52.912;-7.342;2022-12-07T06:17:05;101418.78;;;-1.44;100.00
47985;BME280;33753;52.912;-7.342;2022-12-07T06:19:34;101409.09;;;-1.45;100.00
47985;BME280;33753;52.912;-7.342;2022-12-07T06:22:02;101411.75;;;-1.45;100.00
47985;BME280;33753;52.912;-7.342;2022-12-07T06:24:31;101414.56;;;-1.48;100.00
47985;BME280;33753;52.912;-7.342;2022-12-07T06:27:00;101411.09;;;-1.50;100.00
47985;BME280;33753;52.912;-7.342;2022-12-07T06:29:28;101411.25;;;-1.53;100.00
47985;BME280;33753;52.912;-7.342;2022-12-07T06:31:57;101408.50;;;-1.52;100.00
47985;BME280;33753;52.912;-7.342;2022-12-07T06:34:26;101412.97;;;-1.52;100.00
47985;BME280;33753;52.912;-7.342;2022-12-07T06:36:55;101412.97;;;-1.52;100.00
47985;BME280;33753;52.912;-7.342;2022-12-07T06:39:24;101413.13;;;-1.55;100.00
47985;BME280;33753;52.912;-7.342;2022-12-07T06:41:52;101407.81;;;-1.55;100.00
47985;BME280;33753;52.912;-7.342;2022-12-07T06:44:21;101408.66;;;-1.55;100.00
47985;BME280;33753;52.912;-7.342;2022-12-07T06:46:50;101410.47;;;-1.55;100.00
47985;BME280;33753;52.912;-7.342;2022-12-07T06:49:40;101411.38;;;-1.57;100.00
47985;BME280;33753;52.912;-7.342;2022-12-07T06:52:08;101407.94;;;-1.59;100.00
47985;BME280;33753;52.912;-7.342;2022-12-07T06:54:36;101409.03;;;-1.63;100.00
47985;BME280;33753;52.912;-7.342;2022-12-07T06:57:04;101409.13;;;-1.66;100.00
47985;BME280;33753;52.912;-7.342;2022-12-07T06:59:32;101409.34;;;-1.70;100.00
47985;BME280;33753;52.912;-7.342;2022-12-07T07:02:00;101410.41;;;-1.75;100.00
47985;BME280;33753;52.912;-7.342;2022-12-07T07:04:29;101418.56;;;-1.79;100.00
47985;BME280;33753;52.912;-7.342;2022-12-07T07:06:58;101411.03;;;-1.88;100.00
47985;BME280;33753;52.912;-7.342;2022-12-07T07:09:26;101410.50;;;-1.97;100.00
47985;BME280;33753;52.912;-7.342;2022-12-07T07:11:54;101395.94;;;-2.07;100.00
47985;BME280;33753;52.912;-7.342;2022-12-07T07:14:23;101400.66;;;-2.14;100.00
47985;BME280;33753;52.912;-7.342;2022-12-07T07:16:51;101403.63;;;-2.21;100.00
47985;BME280;33753;52.912;-7.342;2022-12-07T07:19:19;101393.41;;;-2.31;100.00
47985;BME280;33753;52.912;-7.342;2022-12-07T07:21:48;101398.09;;;-2.37;100.00
47985;BME280;33753;52.912;-7.342;2022-12-07T07:24:17;101394.06;;;-2.46;100.00
47985;BME280;33753;52.912;-7.342;2022-12-07T07:26:47;101392.72;;;-2.56;100.00
47985;BME280;33753;52.912;-7.342;2022-12-07T07:29:15;101394.81;;;-2.65;100.00
47985;BME280;33753;52.912;-7.342;2022-12-07T07:31:43;101395.22;;;-2.74;100.00
47985;BME280;33753;52.912;-7.342;2022-12-07T07:34:11;101392.88;;;-2.82;100.00
47985;BME280;33753;52.912;-7.342;2022-12-07T07:36:39;101400.94;;;-2.85;100.00
47985;BME280;33753;52.912;-7.342;2022-12-07T07:39:09;101394.22;;;-2.93;100.00
47985;BME280;33753;52.912;-7.342;2022-12-07T07:41:41;101391.78;;;-2.98;100.00
47985;BME280;33753;52.912;-7.342;2022-12-07T07:44:12;101384.09;;;-3.04;100.00
47985;BME280;33753;52.912;-7.342;2022-12-07T07:46:41;101394.06;;;-3.11;100.00
47985;BME280;33753;52.912;-7.342;2022-12-07T07:49:09;101392.56;;;-3.18;100.00
47985;BME280;33753;52.912;-7.342;2022-12-07T07:51:38;101381.28;;;-3.23;100.00
47985;BME280;33753;52.912;-7.342;2022-12-07T07:54:06;101388.44;;;-3.25;100.00
47985;BME280;33753;52.912;-7.342;2022-12-07T07:56:34;101388.56;;;-3.28;100.00
47985;BME280;33753;52.912;-7.342;2022-12-07T07:59:03;101382.53;;;-3.32;100.00
47985;BME280;33753;52.912;-7.342;2022-12-07T08:01:32;101385.22;;;-3.34;100.00
47985;BME280;33753;52.912;-7.342;2022-12-07T08:04:00;101389.72;;;-3.36;100.00
47985;BME280;33753;52.912;-7.342;2022-12-07T08:06:28;101390.75;;;-3.40;100.00
47985;BME280;33753;52.912;-7.342;2022-12-07T08:08:58;101390.88;;;-3.43;100.00
47985;BME280;33753;52.912;-7.342;2022-12-07T08:11:26;101389.94;;;-3.42;100.00
47985;BME280;33753;52.912;-7.342;2022-12-07T08:13:55;101397.03;;;-3.42;100.00
47985;BME280;33753;52.912;-7.342;2022-12-07T08:16:24;101401.47;;;-3.43;100.00
47985;BME280;33753;52.912;-7.342;2022-12-07T08:18:52;101389.16;;;-3.44;100.00
47985;BME280;33753;52.912;-7.342;2022-12-07T08:21:20;101397.16;;;-3.45;100.00
47985;BME280;33753;52.912;-7.342;2022-12-07T08:23:49;101396.31;;;-3.48;100.00
47985;BME280;33753;52.912;-7.342;2022-12-07T08:26:17;101398.19;;;-3.50;100.00
47985;BME280;33753;52.912;-7.342;2022-12-07T08:28:45;101401.75;;;-3.51;100.00
47985;BME280;33753;52.912;-7.342;2022-12-07T08:31:15;101396.50;;;-3.52;100.00
47985;BME280;33753;52.912;-7.342;2022-12-07T08:33:46;101401.91;;;-3.55;100.00
47985;BME280;33753;52.912;-7.342;2022-12-07T08:36:14;101406.31;;;-3.56;100.00
47985;BME280;33753;52.912;-7.342;2022-12-07T08:38:42;101393.16;;;-3.57;100.00
47985;BME280;33753;52.912;-7.342;2022-12-07T08:41:31;101399.41;;;-3.58;100.00
47985;BME280;33753;52.912;-7.342;2022-12-07T08:43:59;101403.66;;;-3.54;100.00
47985;BME280;33753;52.912;-7.342;2022-12-07T08:46:28;101399.94;;;-3.50;100.00
47985;BME280;33753;52.912;-7.342;2022-12-07T08:49:03;101399.72;;;-3.44;100.00
47985;BME280;33753;52.912;-7.342;2022-12-07T08:51:32;101403.16;;;-3.42;100.00
47985;BME280;33753;52.912;-7.342;2022-12-07T08:54:01;101403.16;;;-3.42;100.00
47985;BME280;33753;52.912;-7.342;2022-12-07T08:56:31;101404.91;;;-3.41;100.00
47985;BME280;33753;52.912;-7.342;2022-12-07T08:58:59;101396.91;;;-3.39;100.00
47985;BME280;33753;52.912;-7.342;2022-12-07T09:01:28;101398.63;;;-3.38;100.00
47985;BME280;33753;52.912;-7.342;2022-12-07T09:04:00;101396.84;;;-3.38;100.00
47985;BME280;33753;52.912;-7.342;2022-12-07T09:06:30;101399.31;;;-3.33;100.00
47985;BME280;33753;52.912;-7.342;2022-12-07T09:08:59;101406.25;;;-3.31;100.00
47985;BME280;33753;52.912;-7.342;2022-12-07T09:11:28;101396.50;;;-3.28;100.00
47985;BME280;33753;52.912;-7.342;2022-12-07T09:13:56;101403.44;;;-3.26;100.00
47985;BME280;33753;52.912;-7.342;2022-12-07T09:16:25;101398.06;;;-3.23;100.00
47985;BME280;33753;52.912;-7.342;2022-12-07T09:18:53;101394.41;;;-3.20;100.00
47985;BME280;33753;52.912;-7.342;2022-12-07T09:21:21;101394.25;;;-3.16;100.00
47985;BME280;33753;52.912;-7.342;2022-12-07T09:23:50;101392.31;;;-3.12;100.00
47985;BME280;33753;52.912;-7.342;2022-12-07T09:26:19;101391.28;;;-3.08;100.00
47985;BME280;33753;52.912;-7.342;2022-12-07T09:28:47;101390.25;;;-3.04;100.00
47985;BME280;33753;52.912;-7.342;2022-12-07T09:31:15;101387.47;;;-3.01;100.00
47985;BME280;33753;52.912;-7.342;2022-12-07T09:33:55;101386.34;;;-2.95;100.00
47985;BME280;33753;52.912;-7.342;2022-12-07T09:36:23;101386.09;;;-2.89;100.00
47985;BME280;33753;52.912;-7.342;2022-12-07T09:38:53;101396.47;;;-2.83;100.00
47985;BME280;33753;52.912;-7.342;2022-12-07T09:41:22;101394.41;;;-2.76;100.00
47985;BME280;33753;52.912;-7.342;2022-12-07T09:43:51;101394.97;;;-2.68;100.00
47985;BME280;33753;52.912;-7.342;2022-12-07T09:46:20;101398.16;;;-2.59;100.00
47985;BME280;33753;52.912;-7.342;2022-12-07T09:48:49;101400.53;;;-2.53;100.00
47985;BME280;33753;52.912;-7.342;2022-12-07T09:51:19;101402.81;;;-2.44;100.00
47985;BME280;33753;52.912;-7.342;2022-12-07T09:53:51;101398.00;;;-2.34;100.00
47985;BME280;33753;52.912;-7.342;2022-12-07T09:56:21;101405.47;;;-2.23;100.00
47985;BME280;33753;52.912;-7.342;2022-12-07T09:58:51;101408.53;;;-2.12;100.00
47985;BME280;33753;52.912;-7.342;2022-12-07T10:01:22;101402.69;;;-2.00;100.00
47985;BME280;33753;52.912;-7.342;2022-12-07T10:03:52;101405.59;;;-1.85;100.00
47985;BME280;33753;52.912;-7.342;2022-12-07T10:06:20;101410.28;;;-1.71;100.00
47985;BME280;33753;52.912;-7.342;2022-12-07T10:08:48;101402.75;;;-1.62;100.00
47985;BME280;33753;52.912;-7.342;2022-12-07T10:11:17;101409.41;;;-1.51;100.00
47985;BME280;33753;52.912;-7.342;2022-12-07T10:13:47;101409.09;;;-1.45;100.00
47985;BME280;33753;52.912;-7.342;2022-12-07T10:16:28;101416.53;;;-1.34;100.00
47985;BME280;33753;52.912;-7.342;2022-12-07T10:19:01;101412.53;;;-1.05;100.00
47985;BME280;33753;52.912;-7.342;2022-12-07T10:21:51;101416.75;;;-0.64;100.00
47985;BME280;33753;52.912;-7.342;2022-12-07T10:24:27;101419.16;;;-0.41;100.00
47985;BME280;33753;52.912;-7.342;2022-12-07T10:26:56;101420.97;;;-0.24;100.00
47985;BME280;33753;52.912;-7.342;2022-12-07T10:29:28;101414.38;;;0.01;100.00
47985;BME280;33753;52.912;-7.342;2022-12-07T10:31:57;101401.22;;;0.15;100.00
47985;BME280;33753;52.912;-7.342;2022-12-07T10:34:27;101401.03;;;0.19;100.00
47985;BME280;33753;52.912;-7.342;2022-12-07T10:37:15;101403.47;;;0.23;100.00
47985;BME280;33753;52.912;-7.342;2022-12-07T10:39:45;101393.41;;;0.46;100.00
47985;BME280;33753;52.912;-7.342;2022-12-07T10:42:17;101385.19;;;0.82;100.00
47985;BME280;33753;52.912;-7.342;2022-12-07T10:44:48;101388.75;;;1.29;100.00
47985;BME280;33753;52.912;-7.342;2022-12-07T10:47:25;101379.88;;;1.75;100.00
47985;BME280;33753;52.912;-7.342;2022-12-07T10:50:10;101371.59;;;2.08;100.00
47985;BME280;33753;52.912;-7.342;2022-12-07T10:52:45;101365.22;;;2.69;100.00
47985;BME280;33753;52.912;-7.342;2022-12-07T10:55:22;101360.25;;;3.32;100.00
47985;BME280;33753;52.912;-7.342;2022-12-07T10:58:00;101360.66;;;3.91;100.00
47985;BME280;33753;52.912;-7.342;2022-12-07T11:00:36;101344.81;;;4.27;100.00
47985;BME280;33753;52.912;-7.342;2022-12-07T11:05:49;101332.22;;;5.14;100.00
47985;BME280;33753;52.912;-7.342;2022-12-07T11:08:21;101326.56;;;5.54;100.00
47985;BME280;33753;52.912;-7.342;2022-12-07T11:10:53;101314.06;;;5.89;100.00
47985;BME280;33753;52.912;-7.342;2022-12-07T11:13:25;101304.34;;;6.11;100.00
47985;BME280;33753;52.912;-7.342;2022-12-07T11:16:04;101301.91;;;6.30;100.00
47985;BME280;33753;52.912;-7.342;2022-12-07T11:18:37;101308.91;;;6.77;100.00
47985;BME280;33753;52.912;-7.342;2022-12-07T11:21:11;101291.50;;;6.92;100.00
47985;BME280;33753;52.912;-7.342;2022-12-07T11:23:46;101289.34;;;7.39;100.00
47985;BME280;33753;52.912;-7.342;2022-12-07T11:26:19;101290.69;;;7.66;100.00
47985;BME280;33753;52.912;-7.342;2022-12-07T11:28:58;101285.16;;;7.99;100.00
47985;BME280;33753;52.912;-7.342;2022-12-07T11:31:31;101275.22;;;8.30;100.00
47985;BME280;33753;52.912;-7.342;2022-12-07T11:34:05;101272.09;;;8.65;100.00
47985;BME280;33753;52.912;-7.342;2022-12-07T11:36:37;101268.03;;;8.91;100.00
47985;BME280;33753;52.912;-7.342;2022-12-07T11:39:09;101253.66;;;9.00;100.00
47985;BME280;33753;52.912;-7.342;2022-12-07T11:41:39;101257.38;;;8.89;100.00
47985;BME280;33753;52.912;-7.342;2022-12-07T11:44:15;101246.88;;;8.36;100.00
47985;BME280;33753;52.912;-7.342;2022-12-07T11:46:56;101232.19;;;8.09;100.00
47985;BME280;33753;52.912;-7.342;2022-12-07T11:49:27;101231.59;;;8.05;100.00
47985;BME280;33753;52.912;-7.342;2022-12-07T11:51:59;101224.81;;;7.80;100.00
47985;BME280;33753;52.912;-7.342;2022-12-07T11:54:29;101225.34;;;7.95;100.00
47985;BME280;33753;52.912;-7.342;2022-12-07T11:57:01;101228.44;;;8.00;100.00
47985;BME280;33753;52.912;-7.342;2022-12-07T11:59:33;101228.81;;;8.17;100.00
47985;BME280;33753;52.912;-7.342;2022-12-07T12:02:11;101226.34;;;8.44;100.00
47985;BME280;33753;52.912;-7.342;2022-12-07T12:04:45;101204.19;;;8.41;100.00
47985;BME280;33753;52.912;-7.342;2022-12-07T12:07:16;101203.50;;;8.48;100.00
47985;BME280;33753;52.912;-7.342;2022-12-07T12:10:05;101203.88;;;7.84;100.00
47985;BME280;33753;52.912;-7.342;2022-12-07T12:12:42;101198.66;;;7.92;100.00
47985;BME280;33753;52.912;-7.342;2022-12-07T12:15:38;101190.63;;;7.40;100.00
47985;BME280;33753;52.912;-7.342;2022-12-07T12:20:55;101191.28;;;6.57;100.00
47985;BME280;33753;52.912;-7.342;2022-12-07T12:23:24;101182.19;;;6.37;100.00
47985;BME280;33753;52.912;-7.342;2022-12-07T12:25:56;101185.75;;;6.27;100.00
47985;BME280;33753;52.912;-7.342;2022-12-07T12:28:26;101176.50;;;6.08;100.00
47985;BME280;33753;52.912;-7.342;2022-12-07T12:31:10;101170.28;;;5.85;100.00
47985;BME280;33753;52.912;-7.342;2022-12-07T12:33:42;101171.63;;;5.68;100.00
47985;BME280;33753;52.912;-7.342;2022-12-07T12:36:43;101168.91;;;5.23;100.00
47985;BME280;33753;52.912;-7.342;2022-12-07T12:39:12;101165.84;;;5.05;100.00
47985;BME280;33753;52.912;-7.342;2022-12-07T12:41:51;101166.56;;;4.71;100.00
47985;BME280;33753;52.912;-7.342;2022-12-07T12:44:38;101161.44;;;4.68;100.00
47985;BME280;33753;52.912;-7.342;2022-12-07T12:50:11;101158.34;;;4.26;100.00
47985;BME280;33753;52.912;-7.342;2022-12-07T12:58:27;101147.22;;;3.82;100.00
47985;BME280;33753;52.912;-7.342;2022-12-07T13:03:51;101141.16;;;3.67;100.00
47985;BME280;33753;52.912;-7.342;2022-12-07T13:06:29;101147.78;;;3.61;100.00
47985;BME280;33753;52.912;-7.342;2022-12-07T13:09:00;101137.97;;;3.49;100.00
47985;BME280;33753;52.912;-7.342;2022-12-07T13:11:29;101145.78;;;3.52;100.00